Time;durP1;ratioP1;P1;durP2;ratioP2;P2;SDS_P1;SDS_P2;PMS_P1;PMS_P2;Temp;Humidity;BMP_temperature;BMP_pressure;BME280_temperature;BME280_humidity;BME280_pressure;Samples;Min_cycle;Max_cycle;Signal;HPM_P1;HPM_P2
2024/01/30 00:00:21;;;;;;;16.57;7.43;;;5.30;69.10;3.50;97735.00;;;;5075480;28;20746;-79
2024/01/30 00:02:48;;;;;;;11.10;6.97;;;5.30;69.10;3.50;97735.00;;;;5073817;28;20226;-80
2024/01/30 00:05:15;;;;;;;9.50;6.07;;;5.30;69.10;3.50;97733.00;;;;5056192;28;20196;-79
2024/01/30 00:07:43;;;;;;;9.47;7.03;;;5.30;69.80;3.50;97727.00;;;;5074117;28;20569;-80
2024/01/30 00:10:11;;;;;;;8.20;5.93;;;5.30;69.10;3.50;97734.00;;;;5071832;28;20291;-80
2024/01/30 00:12:39;;;;;;;8.83;7.13;;;5.30;69.10;3.50;97727.00;;;;5068853;28;20261;-80
2024/01/30 00:15:09;;;;;;;12.30;6.80;;;5.30;69.10;3.50;97725.00;;;;5073926;28;20312;-80
2024/01/30 00:17:37;;;;;;;10.87;7.30;;;5.30;69.10;3.50;97732.00;;;;5071700;28;20541;-80
2024/01/30 00:20:09;;;;;;;8.20;6.20;;;5.20;69.10;3.40;97727.00;;;;5071983;28;20215;-80
2024/01/30 00:22:36;;;;;;;9.17;7.03;;;5.20;69.10;3.40;97737.00;;;;5068800;28;20192;-80
2024/01/30 00:25:04;;;;;;;7.00;5.97;;;5.20;69.00;3.40;97737.00;;;;5070608;28;20245;-80
2024/01/30 00:27:33;;;;;;;10.13;6.93;;;5.20;68.90;3.40;97736.00;;;;5070403;28;20196;-80
2024/01/30 00:30:02;;;;;;;8.57;6.63;;;5.20;68.80;3.40;97735.00;;;;5063194;28;20215;-80
2024/01/30 00:32:29;;;;;;;9.73;7.20;;;5.20;68.90;3.40;97738.00;;;;5072061;28;20631;-80
2024/01/30 00:34:59;;;;;;;8.63;6.83;;;5.20;68.90;3.40;97736.00;;;;5071690;28;20224;-80
2024/01/30 00:37:27;;;;;;;8.77;7.00;;;5.10;68.80;3.30;97737.00;;;;5073286;28;20192;-80
2024/01/30 00:39:54;;;;;;;7.23;6.47;;;5.10;68.80;3.30;97735.00;;;;5073166;28;20711;-80
2024/01/30 00:42:23;;;;;;;10.63;6.57;;;5.10;68.80;3.30;97741.00;;;;5079572;28;20192;-79
2024/01/30 00:44:51;;;;;;;9.43;6.63;;;5.10;68.80;3.20;97741.00;;;;5073313;28;20657;-79
2024/01/30 00:47:20;;;;;;;11.93;6.90;;;5.10;68.70;3.20;97739.00;;;;5075125;28;20279;-80
2024/01/30 00:49:47;;;;;;;8.63;6.33;;;5.00;68.70;3.20;97748.00;;;;5072435;28;20683;-80
2024/01/30 00:52:14;;;;;;;9.40;6.50;;;5.00;68.80;3.20;97746.00;;;;5072306;28;20291;-79
2024/01/30 00:54:41;;;;;;;8.43;6.83;;;5.00;68.90;3.20;97751.00;;;;5072441;28;20633;-80
2024/01/30 00:57:09;;;;;;;8.30;6.73;;;5.00;69.00;3.20;97745.00;;;;5074321;28;20275;-79
2024/01/30 00:59:36;;;;;;;7.17;6.27;;;5.00;68.90;3.20;97744.00;;;;5068298;28;20720;-80
2024/01/30 01:02:04;;;;;;;7.37;6.60;;;5.00;68.80;3.10;97737.00;;;;5071934;28;20275;-80
2024/01/30 01:04:33;;;;;;;9.77;6.97;;;5.00;68.90;3.10;97740.00;;;;5072675;28;20188;-80
2024/01/30 01:07:00;;;;;;;8.37;7.20;;;4.90;68.80;3.10;97749.00;;;;5071892;28;20279;-80
2024/01/30 01:09:27;;;;;;;7.97;6.27;;;4.90;68.80;3.10;97746.00;;;;5075441;28;20608;-80
2024/01/30 01:11:54;;;;;;;10.57;6.53;;;4.90;68.70;3.10;97745.00;;;;5071448;28;20188;-80
2024/01/30 01:14:22;;;;;;;9.17;6.83;;;4.90;68.80;3.00;97739.00;;;;5070925;28;20244;-80
2024/01/30 01:16:49;;;;;;;8.00;6.13;;;4.90;68.80;3.00;97750.00;;;;5070737;28;20718;-80
2024/01/30 01:19:16;;;;;;;10.93;7.13;;;5.50;69.20;3.00;97736.00;;;;5070941;28;20218;-80
2024/01/30 01:21:45;;;;;;;7.80;6.23;;;4.90;68.80;3.00;97735.00;;;;5073350;28;20216;-80
2024/01/30 01:24:12;;;;;;;8.53;6.30;;;4.80;68.70;3.00;97737.00;;;;5072175;28;20237;-80
2024/01/30 01:26:40;;;;;;;8.23;6.83;;;4.80;68.80;3.00;97733.00;;;;5073079;28;20553;-80
2024/01/30 01:29:09;;;;;;;10.07;7.03;;;4.80;68.80;3.00;97738.00;;;;5072844;28;20208;-80
2024/01/30 01:31:43;;;;;;;8.07;6.10;;;4.80;68.80;2.90;97741.00;;;;5070293;28;20239;-80
2024/01/30 01:34:10;;;;;;;8.83;6.70;;;4.80;68.80;2.90;97730.00;;;;5069830;28;20208;-80
2024/01/30 01:36:41;;;;;;;7.33;6.50;;;4.80;68.80;2.90;97734.00;;;;5069463;28;20242;-80
2024/01/30 01:39:11;;;;;;;8.07;7.00;;;4.70;68.70;2.90;97730.00;;;;5070413;28;20265;-80
2024/01/30 01:41:38;;;;;;;7.97;6.70;;;4.70;68.80;2.90;97727.00;;;;5074896;28;20191;-80
2024/01/30 01:44:06;;;;;;;6.93;6.33;;;4.70;68.90;2.90;97725.00;;;;5081157;28;20196;-80
2024/01/30 01:46:37;;;;;;;8.27;6.60;;;4.70;69.10;2.90;97734.00;;;;5081981;28;20192;-80
2024/01/30 01:49:07;;;;;;;8.70;6.90;;;4.70;70.00;2.90;97738.00;;;;5083058;28;20231;-80
2024/01/30 01:51:37;;;;;;;8.77;6.70;;;4.70;69.40;2.90;97737.00;;;;5080469;28;20271;-80
2024/01/30 01:54:06;;;;;;;7.47;6.60;;;4.70;69.50;2.90;97735.00;;;;5074007;28;20192;-80
2024/01/30 01:56:37;;;;;;;8.37;6.37;;;4.70;69.30;2.90;97723.00;;;;5071651;28;20184;-80
2024/01/30 01:59:08;;;;;;;8.20;6.10;;;4.70;69.10;2.90;97728.00;;;;5072141;28;20291;-80
2024/01/30 02:01:37;;;;;;;7.93;6.63;;;4.70;69.00;2.90;97721.00;;;;5071512;28;20180;-80
2024/01/30 02:04:06;;;;;;;8.37;6.50;;;4.70;69.10;2.90;97725.00;;;;5071403;28;20215;-80
2024/01/30 02:06:34;;;;;;;12.23;7.20;;;4.70;69.10;2.80;97721.00;;;;5070033;28;20195;-80
2024/01/30 02:09:02;;;;;;;7.40;6.07;;;4.70;69.00;2.80;97729.00;;;;5070512;28;20207;-80
2024/01/30 02:11:30;;;;;;;8.20;7.23;;;4.70;69.00;2.80;97730.00;;;;5070296;28;20215;-80
2024/01/30 02:14:03;;;;;;;8.80;6.20;;;4.70;69.10;2.80;97727.00;;;;5069868;28;20184;-80
2024/01/30 02:16:31;;;;;;;8.17;6.20;;;4.60;69.00;2.80;97730.00;;;;5069599;28;20196;-81
2024/01/30 02:18:58;;;;;;;8.57;6.73;;;4.60;69.10;2.80;97729.00;;;;5069990;28;20298;-81
2024/01/30 02:21:27;;;;;;;8.87;6.13;;;4.60;69.00;2.70;97723.00;;;;5069426;28;20671;-80
2024/01/30 02:23:56;;;;;;;6.73;5.83;;;4.60;69.00;2.70;97734.00;;;;5072023;28;20230;-80
2024/01/30 02:26:24;;;;;;;7.60;6.40;;;4.60;69.00;2.70;97743.00;;;;5072207;28;20279;-80
2024/01/30 02:28:51;;;;;;;8.73;6.90;;;4.60;69.00;2.70;97733.00;;;;5071692;28;20228;-80
2024/01/30 02:31:20;;;;;;;7.90;6.30;;;4.60;68.90;2.70;97736.00;;;;5071977;28;20714;-80
2024/01/30 02:33:48;;;;;;;7.87;6.30;;;4.50;68.80;2.60;97734.00;;;;5075512;28;20188;-80
2024/01/30 02:36:15;;;;;;;8.77;7.13;;;4.50;68.70;2.60;97741.00;;;;5077128;28;20734;-80
2024/01/30 02:38:46;;;;;;;7.60;6.27;;;4.50;68.80;2.60;97723.00;;;;5079091;28;20756;-80
2024/01/30 02:41:14;;;;;;;8.37;6.00;;;4.50;68.80;2.60;97735.00;;;;5079541;28;20211;-80
2024/01/30 02:43:41;;;;;;;8.90;6.80;;;4.50;68.90;2.60;97732.00;;;;5080686;28;20672;-80
2024/01/30 02:46:11;;;;;;;7.63;6.83;;;4.50;69.00;2.60;97725.00;;;;5082176;28;20195;-80
2024/01/30 02:48:39;;;;;;;9.37;7.00;;;4.50;69.30;2.60;97721.00;;;;5068705;28;20229;-80
2024/01/30 02:51:07;;;;;;;7.57;6.63;;;4.40;69.30;2.60;97717.00;;;;5076187;28;20192;-80
2024/01/30 02:53:34;;;;;;;7.90;6.63;;;4.40;69.10;2.60;97718.00;;;;5074262;28;20187;-80
2024/01/30 02:56:05;;;;;;;8.47;7.03;;;4.40;69.10;2.60;97723.00;;;;5076298;28;20292;-80
2024/01/30 02:58:32;;;;;;;7.63;6.60;;;4.40;69.10;2.50;97719.00;;;;5082287;28;20198;-81
2024/01/30 03:01:00;;;;;;;11.53;7.20;;;4.40;69.00;2.50;97719.00;;;;5075410;28;20274;-80
2024/01/30 03:03:27;;;;;;;8.17;6.90;;;4.40;69.00;2.50;97719.00;;;;5077980;28;20215;-80
2024/01/30 03:05:54;;;;;;;8.07;6.73;;;4.40;69.00;2.50;97704.00;;;;5073787;28;20741;-80
2024/01/30 03:08:22;;;;;;;8.27;6.70;;;4.40;69.00;2.50;97710.00;;;;5072112;28;20188;-80
2024/01/30 03:10:50;;;;;;;9.03;6.37;;;4.40;68.90;2.50;97705.00;;;;5073722;28;20559;-80
2024/01/30 03:13:18;;;;;;;8.40;6.90;;;4.30;68.70;2.40;97707.00;;;;5073764;28;20503;-80
2024/01/30 03:15:46;;;;;;;7.87;6.57;;;4.30;68.80;2.40;97710.00;;;;5073573;28;20207;-80
2024/01/30 03:18:13;;;;;;;8.43;6.93;;;4.30;68.90;2.40;97700.00;;;;5075838;28;20665;-81
2024/01/30 03:20:40;;;;;;;8.33;7.40;;;4.30;68.90;2.40;97700.00;;;;5077138;28;20274;-80
2024/01/30 03:23:08;;;;;;;11.37;7.67;;;4.30;68.90;2.40;97699.00;;;;5077147;28;20485;-80
2024/01/30 03:25:35;;;;;;;7.43;6.60;;;4.30;68.90;2.40;97696.00;;;;5075182;28;20439;-81
2024/01/30 03:28:04;;;;;;;8.57;6.60;;;4.30;68.80;2.30;97697.00;;;;5075368;28;20446;-80
2024/01/30 03:30:33;;;;;;;9.00;6.50;;;4.20;68.70;2.30;97699.00;;;;5074846;28;20516;-80
2024/01/30 03:33:00;;;;;;;12.07;6.67;;;4.20;68.70;2.30;97699.00;;;;5073494;28;20507;-80
2024/01/30 03:35:27;;;;;;;8.03;6.60;;;4.20;68.70;2.30;97693.00;;;;5074214;28;20231;-80
2024/01/30 03:37:54;;;;;;;9.43;7.03;;;4.20;68.70;2.30;97700.00;;;;5076699;28;20668;-80
2024/01/30 03:40:22;;;;;;;9.00;6.57;;;4.20;68.80;2.20;97702.00;;;;5074800;28;21032;-80
2024/01/30 03:42:49;;;;;;;7.83;6.53;;;4.10;68.80;2.20;97705.00;;;;5075250;28;20439;-80
2024/01/30 03:45:19;;;;;;;9.60;7.13;;;4.10;68.80;2.20;97699.00;;;;5078757;28;20200;-80
2024/01/30 03:47:48;;;;;;;8.80;7.07;;;4.10;68.70;2.20;97696.00;;;;5076031;28;20219;-80
2024/01/30 03:50:15;;;;;;;8.93;7.30;;;4.10;68.70;2.20;97699.00;;;;5082997;28;20454;-80
2024/01/30 03:52:42;;;;;;;8.10;6.77;;;4.10;68.70;2.20;97703.00;;;;5074806;28;20541;-81
2024/01/30 03:55:10;;;;;;;9.93;6.67;;;4.10;68.70;2.20;97691.00;;;;5069711;28;20562;-80
2024/01/30 03:57:37;;;;;;;9.43;7.23;;;4.00;68.60;2.20;97691.00;;;;5074047;28;20196;-80
2024/01/30 04:00:10;;;;;;;10.90;7.03;;;4.10;68.80;2.10;97690.00;;;;5073501;28;20725;-80
2024/01/30 04:02:37;;;;;;;9.87;7.40;;;4.00;68.70;2.10;97692.00;;;;5077342;28;20442;-80
2024/01/30 04:05:07;;;;;;;8.13;7.13;;;4.00;68.60;2.10;97690.00;;;;5075130;28;20226;-80
2024/01/30 04:07:34;;;;;;;8.20;6.57;;;4.00;68.70;2.10;97692.00;;;;5074202;28;20188;-80
2024/01/30 04:10:05;;;;;;;8.77;7.40;;;4.00;68.80;2.10;97691.00;;;;5076644;28;20474;-80
2024/01/30 04:12:32;;;;;;;9.87;7.07;;;4.00;68.80;2.10;97691.00;;;;5079788;28;20196;-80
2024/01/30 04:15:00;;;;;;;9.93;7.50;;;4.00;68.70;2.10;97694.00;;;;5083546;28;20535;-80
2024/01/30 04:17:28;;;;;;;9.53;7.37;;;4.00;68.70;2.00;97684.00;;;;5085035;28;20668;-80
2024/01/30 04:19:56;;;;;;;8.77;7.10;;;3.90;68.70;2.00;97680.00;;;;5084870;28;20557;-80
2024/01/30 04:22:24;;;;;;;9.77;7.27;;;3.90;68.60;2.00;97687.00;;;;5089827;28;20191;-80
2024/01/30 04:24:52;;;;;;;8.00;6.33;;;3.90;68.70;2.00;97685.00;;;;5071908;28;20188;-80
2024/01/30 04:27:19;;;;;;;9.90;7.30;;;3.90;68.80;2.00;97691.00;;;;5074654;28;20180;-80
2024/01/30 04:29:47;;;;;;;8.50;7.07;;;3.90;68.70;2.00;97691.00;;;;5074656;28;20196;-80
2024/01/30 04:32:14;;;;;;;8.87;7.10;;;3.90;68.60;2.00;97701.00;;;;5073909;28;20215;-81
2024/01/30 04:34:41;;;;;;;12.07;8.13;;;3.90;68.60;2.00;97696.00;;;;5072905;28;20230;-80
2024/01/30 04:37:09;;;;;;;9.33;7.17;;;3.90;68.60;1.90;97698.00;;;;5074729;28;21200;-80
2024/01/30 04:39:40;;;;;;;7.40;6.70;;;3.90;69.40;1.90;97699.00;;;;5073684;28;20466;-81
2024/01/30 04:42:08;;;;;;;9.67;6.63;;;3.80;68.70;1.90;97698.00;;;;5073554;28;20831;-80
2024/01/30 04:44:35;;;;;;;10.43;7.30;;;3.80;68.70;1.90;97702.00;;;;5073389;28;20204;-80
2024/01/30 04:47:05;;;;;;;10.13;6.93;;;3.80;68.80;1.90;97691.00;;;;5068573;28;20870;-81
2024/01/30 04:49:32;;;;;;;9.33;6.87;;;3.80;69.00;1.90;97702.00;;;;5073441;28;20829;-81
2024/01/30 04:51:59;;;;;;;8.93;6.47;;;3.80;68.90;1.90;97697.00;;;;5071982;28;20191;-81
2024/01/30 04:54:26;;;;;;;9.97;7.03;;;3.80;68.90;1.90;97704.00;;;;5072591;28;20443;-81
2024/01/30 04:56:55;;;;;;;8.00;6.93;;;3.80;68.80;1.90;97703.00;;;;5073488;28;20230;-81
2024/01/30 04:59:22;;;;;;;12.20;7.53;;;3.80;68.70;1.90;97705.00;;;;5070987;28;20489;-80
2024/01/30 05:01:50;;;;;;;10.47;7.37;;;3.80;68.70;1.90;97711.00;;;;5072663;28;20457;-80
2024/01/30 05:04:17;;;;;;;11.60;7.57;;;3.70;68.70;1.90;97715.00;;;;5075060;28;20462;-81
2024/01/30 05:06:44;;;;;;;9.40;7.67;;;3.80;68.90;1.90;97705.00;;;;5071410;28;20485;-80
2024/01/30 05:09:12;;;;;;;8.67;7.30;;;3.80;69.00;1.80;97709.00;;;;5071775;28;20450;-80
2024/01/30 05:11:41;;;;;;;9.53;7.40;;;3.80;68.80;1.80;97723.00;;;;5071932;28;20502;-81
2024/01/30 05:14:10;;;;;;;9.77;7.00;;;3.80;68.90;1.80;97718.00;;;;5054575;28;20446;-80
2024/01/30 05:16:39;;;;;;;9.50;7.53;;;3.70;68.70;1.80;97714.00;;;;5068244;28;20902;-81
2024/01/30 05:19:06;;;;;;;8.93;7.13;;;3.70;68.70;1.80;97713.00;;;;5073765;28;21771;-81
2024/01/30 05:21:33;;;;;;;8.57;6.93;;;3.70;68.80;1.80;97713.00;;;;5073115;28;20526;-81
2024/01/30 05:24:00;;;;;;;9.23;7.50;;;3.70;68.80;1.80;97715.00;;;;5071515;28;20438;-80
2024/01/30 05:26:29;;;;;;;9.93;6.73;;;3.70;68.70;1.80;97715.00;;;;5072589;28;20985;-80
2024/01/30 05:28:56;;;;;;;11.33;6.90;;;3.70;68.70;1.70;97706.00;;;;5070909;28;20684;-80
2024/01/30 05:31:27;;;;;;;8.87;7.13;;;3.70;68.80;1.80;97708.00;;;;5072748;28;20457;-80
2024/01/30 05:33:55;;;;;;;7.37;6.67;;;3.70;68.90;1.80;97712.00;;;;5068577;28;20649;-80
2024/01/30 05:36:22;;;;;;;8.17;6.93;;;3.70;69.10;1.80;97709.00;;;;5068964;28;20459;-80
2024/01/30 05:38:49;;;;;;;9.60;7.17;;;3.70;69.20;1.80;97713.00;;;;5069374;28;20568;-80
2024/01/30 05:41:17;;;;;;;9.03;7.23;;;3.70;69.30;1.80;97713.00;;;;5072271;28;20967;-80
2024/01/30 05:43:44;;;;;;;9.60;7.37;;;3.70;69.10;1.80;97716.00;;;;5072245;28;20458;-82
2024/01/30 05:46:11;;;;;;;9.27;7.77;;;3.70;69.10;1.80;97712.00;;;;5073989;28;20454;-83
2024/01/30 05:48:40;;;;;;;9.00;7.07;;;3.70;69.10;1.80;97716.00;;;;5075708;28;20476;-80
2024/01/30 05:51:08;;;;;;;10.10;7.43;;;3.70;69.10;1.70;97712.00;;;;5069380;28;20496;-81
2024/01/30 05:53:36;;;;;;;8.10;7.10;;;3.70;69.10;1.70;97718.00;;;;5078328;28;20453;-80
2024/01/30 05:56:04;;;;;;;9.17;7.20;;;3.70;69.00;1.70;97712.00;;;;5073409;28;20464;-80
2024/01/30 05:58:32;;;;;;;8.63;7.27;;;3.70;68.90;1.70;97719.00;;;;5076221;28;20474;-80
2024/01/30 06:00:59;;;;;;;8.13;6.80;;;3.60;68.80;1.70;97720.00;;;;5075287;28;20460;-80
2024/01/30 06:03:26;;;;;;;9.23;7.33;;;3.70;68.80;1.70;97711.00;;;;5077509;28;20442;-80
2024/01/30 06:05:55;;;;;;;8.53;7.40;;;3.60;68.70;1.70;97719.00;;;;5077691;28;20471;-80
2024/01/30 06:08:22;;;;;;;13.17;8.43;;;3.60;68.70;1.70;97715.00;;;;5077572;28;20466;-80
2024/01/30 06:10:49;;;;;;;9.83;7.33;;;3.60;68.70;1.60;97719.00;;;;5069313;28;20500;-80
2024/01/30 06:13:16;;;;;;;11.10;8.47;;;3.60;68.80;1.60;97718.00;;;;5074254;28;20437;-81
2024/01/30 06:15:44;;;;;;;8.87;7.87;;;3.50;68.70;1.60;97715.00;;;;5080054;28;20556;-81
2024/01/30 06:18:11;;;;;;;11.40;6.80;;;3.60;68.70;1.60;97724.00;;;;5079452;28;20792;-81
2024/01/30 06:20:38;;;;;;;8.70;7.57;;;3.50;68.60;1.60;97730.00;;;;5075090;28;20495;-81
2024/01/30 06:23:07;;;;;;;8.10;7.30;;;3.50;68.70;1.60;97731.00;;;;5072685;28;20442;-80
2024/01/30 06:25:34;;;;;;;9.27;7.43;;;3.50;68.80;1.60;97725.00;;;;5070196;28;20512;-81
2024/01/30 06:28:02;;;;;;;9.97;7.13;;;3.50;69.00;1.60;97726.00;;;;5073745;28;20486;-80
2024/01/30 06:30:29;;;;;;;8.37;7.30;;;3.50;69.10;1.60;97724.00;;;;5074963;28;21001;-78
2024/01/30 06:32:57;;;;;;;11.98;9.20;;;3.50;69.10;1.70;97739.00;;;;5069662;28;20816;-80
2024/01/30 06:35:25;;;;;;;9.97;8.30;;;3.30;70.00;1.70;97740.00;;;;5069222;28;20283;-80
2024/01/30 06:37:54;;;;;;;10.73;8.60;;;3.30;70.30;1.80;97740.00;;;;5071387;28;20443;-80
2024/01/30 06:40:22;;;;;;;10.27;8.67;;;3.50;70.20;1.80;97736.00;;;;5075643;28;20446;-80
2024/01/30 06:42:50;;;;;;;9.17;7.47;;;3.50;70.00;1.80;97742.00;;;;5079424;28;20188;-82
2024/01/30 06:45:17;;;;;;;9.97;8.07;;;3.60;69.90;1.80;97743.00;;;;5081061;28;20223;-84
2024/01/30 06:47:44;;;;;;;12.03;7.50;;;3.70;69.70;1.90;97748.00;;;;5082950;28;20462;-84
2024/01/30 06:50:12;;;;;;;7.93;6.93;;;3.70;69.50;1.90;97752.00;;;;5078612;28;20462;-82
2024/01/30 06:52:39;;;;;;;9.10;7.03;;;3.80;69.40;1.90;97753.00;;;;5075708;28;20541;-81
2024/01/30 06:55:07;;;;;;;10.27;7.50;;;3.80;69.30;1.90;97758.00;;;;5067842;28;20204;-81
2024/01/30 06:57:36;;;;;;;9.17;7.33;;;3.80;69.10;1.90;97765.00;;;;5066014;28;20505;-82
2024/01/30 07:00:04;;;;;;;10.67;7.53;;;3.90;69.10;1.90;97753.00;;;;5066497;28;20501;-81
2024/01/30 07:02:32;;;;;;;10.37;7.50;;;3.90;69.20;1.90;97768.00;;;;5068300;28;20349;-81
2024/01/30 07:04:59;;;;;;;9.33;7.00;;;3.90;68.90;2.00;97760.00;;;;5067190;28;20441;-81
2024/01/30 07:07:28;;;;;;;9.37;7.53;;;3.90;69.00;2.00;97762.00;;;;5065965;28;20523;-81
2024/01/30 07:09:58;;;;;;;10.47;7.47;;;4.00;68.90;2.00;97750.00;;;;5066797;28;20511;-81
2024/01/30 07:12:26;;;;;;;12.27;7.57;;;4.00;68.90;2.00;97757.00;;;;5066427;28;20722;-81
2024/01/30 07:14:56;;;;;;;10.20;7.20;;;4.00;68.80;2.00;97751.00;;;;5066081;28;20452;-81
2024/01/30 07:17:23;;;;;;;8.73;6.67;;;4.00;68.70;2.00;97755.00;;;;5068915;28;20496;-81
2024/01/30 07:19:50;;;;;;;9.33;7.33;;;4.00;68.60;2.00;97752.00;;;;5069695;28;20500;-82
2024/01/30 07:22:18;;;;;;;9.47;6.97;;;4.00;68.50;2.00;97750.00;;;;5069944;28;20495;-81
2024/01/30 07:24:47;;;;;;;9.90;7.67;;;4.00;68.60;2.00;97748.00;;;;5070779;28;20438;-82
2024/01/30 07:27:17;;;;;;;10.00;7.20;;;4.00;68.70;2.00;97759.00;;;;5071702;28;20264;-81
2024/01/30 07:29:45;;;;;;;10.03;7.30;;;4.00;68.70;2.10;97758.00;;;;5068243;28;20319;-81
2024/01/30 07:32:14;;;;;;;9.37;7.70;;;4.00;68.70;2.10;97755.00;;;;5066622;28;20742;-81
2024/01/30 07:34:41;;;;;;;10.13;8.13;;;4.00;68.70;2.10;97761.00;;;;5069379;28;20192;-83
2024/01/30 07:37:09;;;;;;;10.40;7.57;;;4.10;68.80;2.10;97758.00;;;;5070347;28;20274;-82
2024/01/30 07:39:36;;;;;;;10.43;7.73;;;4.10;68.80;2.10;97762.00;;;;5070028;28;21171;-82
2024/01/30 07:42:05;;;;;;;9.10;7.33;;;4.10;68.80;2.20;97768.00;;;;5065913;28;20454;-81
2024/01/30 07:44:32;;;;;;;7.60;6.80;;;4.10;68.90;2.20;97757.00;;;;5066217;28;20518;-81
2024/01/30 07:46:59;;;;;;;9.77;7.13;;;4.10;69.00;2.20;97760.00;;;;5066564;28;20192;-81
2024/01/30 07:49:28;;;;;;;8.87;7.60;;;4.20;69.10;2.30;97776.00;;;;5067547;28;20571;-81
2024/01/30 07:51:55;;;;;;;10.43;8.57;;;4.20;69.10;2.40;97774.00;;;;5067770;28;20476;-81
2024/01/30 07:54:23;;;;;;;11.83;8.53;;;4.10;69.50;2.40;97778.00;;;;5067061;28;20216;-81
2024/01/30 07:56:50;;;;;;;9.50;7.70;;;4.20;69.90;2.50;97779.00;;;;5068668;28;20218;-81
2024/01/30 07:59:19;;;;;;;9.43;7.77;;;4.30;69.80;2.50;97782.00;;;;5065322;28;20232;-80
2024/01/30 08:01:46;;;;;;;10.27;7.53;;;4.30;69.70;2.50;97770.00;;;;5068997;28;20196;-80
2024/01/30 08:04:17;;;;;;;9.80;8.00;;;4.40;69.80;2.50;97784.00;;;;5068970;28;20720;-80
2024/01/30 08:06:46;;;;;;;8.17;7.37;;;4.40;69.70;2.60;97792.00;;;;5068519;28;20434;-81
2024/01/30 08:09:13;;;;;;;10.60;7.10;;;4.50;69.70;2.60;97793.00;;;;5068363;28;20680;-81
2024/01/30 08:11:40;;;;;;;9.20;7.57;;;4.50;69.70;2.70;97789.00;;;;5066232;28;20227;-80
2024/01/30 08:14:08;;;;;;;8.13;7.20;;;4.60;69.80;2.70;97796.00;;;;5066284;28;20211;-80
2024/01/30 08:16:38;;;;;;;8.97;7.67;;;4.60;69.80;2.80;97793.00;;;;5067442;28;20589;-81
2024/01/30 08:19:05;;;;;;;9.20;7.10;;;4.60;69.90;2.80;97787.00;;;;5065286;28;20315;-81
2024/01/30 08:21:36;;;;;;;8.73;6.77;;;4.70;70.00;2.90;97790.00;;;;5065488;28;20199;-81
2024/01/30 08:24:06;;;;;;;9.90;7.77;;;4.70;70.10;3.00;97790.00;;;;5065804;28;20195;-81
2024/01/30 08:26:33;;;;;;;8.10;6.57;;;4.80;70.20;3.00;97784.00;;;;5067108;28;20274;-81
2024/01/30 08:29:01;;;;;;;8.67;6.33;;;4.90;70.40;3.10;97794.00;;;;5065323;28;20199;-81
2024/01/30 08:31:28;;;;;;;8.63;6.50;;;4.90;70.50;3.20;97794.00;;;;5066115;28;20616;-81
2024/01/30 08:33:55;;;;;;;7.67;6.33;;;5.00;70.70;3.30;97790.00;;;;5067662;28;20180;-81
2024/01/30 08:36:23;;;;;;;10.03;6.87;;;5.10;70.80;3.30;97788.00;;;;5066946;28;20307;-81
2024/01/30 08:38:50;;;;;;;7.23;6.03;;;5.10;70.80;3.40;97783.00;;;;5063205;28;20783;-80
2024/01/30 08:41:19;;;;;;;7.10;6.40;;;5.20;70.80;3.50;97795.00;;;;5066562;28;20188;-81
2024/01/30 08:43:46;;;;;;;7.47;6.10;;;5.30;70.80;3.60;97788.00;;;;5065257;28;20227;-80
2024/01/30 08:46:14;;;;;;;6.10;5.57;;;5.40;70.90;3.70;97790.00;;;;5065631;28;20226;-81
2024/01/30 08:48:42;;;;;;;7.93;6.13;;;5.40;70.90;3.80;97795.00;;;;5065906;28;20207;-81
2024/01/30 08:51:09;;;;;;;7.47;6.00;;;5.50;71.10;3.90;97787.00;;;;5068034;28;20267;-81
2024/01/30 08:53:38;;;;;;;8.40;6.13;;;5.70;71.10;4.00;97776.00;;;;5065376;28;21376;-80
2024/01/30 08:56:07;;;;;;;7.00;6.30;;;5.70;71.10;4.10;97789.00;;;;5068357;28;20287;-81
2024/01/30 08:58:38;;;;;;;8.07;6.47;;;5.80;71.20;4.30;97797.00;;;;5063255;28;20302;-81
2024/01/30 09:01:06;;;;;;;7.97;6.77;;;5.90;71.10;4.40;97789.00;;;;5064712;28;20680;-81
2024/01/30 09:03:39;;;;;;;9.80;6.13;;;6.00;71.20;4.50;97803.00;;;;5068292;28;20657;-81
2024/01/30 09:06:10;;;;;;;9.60;6.73;;;6.20;71.20;4.70;97808.00;;;;5066483;28;20196;-81
2024/01/30 09:08:38;;;;;;;9.57;6.50;;;6.30;71.40;4.80;97805.00;;;;5066557;28;20799;-81
2024/01/30 09:11:10;;;;;;;9.63;6.83;;;6.40;71.50;5.00;97806.00;;;;5067120;28;20231;-81
2024/01/30 09:13:39;;;;;;;8.93;6.50;;;6.60;71.40;5.10;97821.00;;;;5068032;28;20206;-81
2024/01/30 09:16:08;;;;;;;10.27;7.23;;;6.70;71.40;5.20;97816.00;;;;5065018;28;20200;-80
2024/01/30 09:18:36;;;;;;;8.73;6.83;;;6.90;71.20;5.40;97812.00;;;;5065594;28;20977;-80
2024/01/30 09:21:03;;;;;;;11.43;7.90;;;7.00;71.10;5.50;97827.00;;;;5071522;28;20188;-80
2024/01/30 09:23:31;;;;;;;11.83;8.80;;;7.10;71.00;5.60;97828.00;;;;5082433;28;20196;-80
2024/01/30 09:25:58;;;;;;;11.67;8.73;;;7.20;70.90;5.70;97831.00;;;;5075710;28;20561;-81
2024/01/30 09:28:26;;;;;;;10.13;7.77;;;7.30;70.80;5.80;97824.00;;;;5078272;28;20192;-82
2024/01/30 09:30:55;;;;;;;8.47;7.27;;;7.50;70.70;5.90;97832.00;;;;5078463;28;20196;-82
2024/01/30 09:33:22;;;;;;;9.00;7.30;;;7.60;70.50;6.00;97827.00;;;;5073717;28;20331;-81
2024/01/30 09:35:50;;;;;;;8.50;6.57;;;7.60;70.30;6.10;97826.00;;;;5068239;28;20188;-81
2024/01/30 09:38:18;;;;;;;8.40;6.67;;;7.70;70.20;6.20;97829.00;;;;5061875;28;20300;-80
2024/01/30 09:40:54;;;;;;;9.40;6.73;;;7.80;70.40;6.30;97843.00;;;;5062929;28;20216;-80
2024/01/30 09:43:24;;;;;;;9.40;7.13;;;7.90;70.50;6.40;97836.00;;;;5061052;28;20556;-80
2024/01/30 09:45:54;;;;;;;8.23;6.83;;;8.10;70.50;6.60;97842.00;;;;5061204;28;20219;-80
2024/01/30 09:48:23;;;;;;;8.07;6.63;;;8.20;70.50;6.70;97843.00;;;;5060225;28;20241;-80
2024/01/30 09:50:52;;;;;;;7.47;6.70;;;8.30;70.70;6.90;97850.00;;;;5062078;28;20200;-80
2024/01/30 09:53:20;;;;;;;7.53;6.80;;;8.50;70.70;7.10;97844.00;;;;5062701;28;20204;-80
2024/01/30 09:55:48;;;;;;;8.87;6.70;;;8.60;71.20;7.40;97850.00;;;;5063263;28;20203;-79
2024/01/30 09:58:15;;;;;;;8.43;6.37;;;8.90;71.70;7.70;97849.00;;;;5065805;28;20253;-80
2024/01/30 10:00:43;;;;;;;7.27;6.47;;;9.10;72.00;7.90;97854.00;;;;5065167;28;20208;-81
2024/01/30 10:03:14;;;;;;;7.70;5.67;;;9.30;72.10;8.20;97850.00;;;;5066234;28;20343;-80
2024/01/30 10:05:42;;;;;;;6.00;5.40;;;9.60;72.20;8.50;97849.00;;;;5066177;28;20239;-80
2024/01/30 10:08:10;;;;;;;5.10;4.50;;;9.90;72.30;8.80;97846.00;;;;5064235;28;20285;-80
2024/01/30 10:10:37;;;;;;;5.60;5.07;;;10.20;72.00;9.10;97856.00;;;;5065436;28;20299;-80
2024/01/30 10:13:05;;;;;;;6.10;5.00;;;10.50;71.90;9.50;97851.00;;;;5060859;28;20216;-80
2024/01/30 10:15:35;;;;;;;5.60;5.00;;;10.80;71.30;9.80;97855.00;;;;5063068;28;20283;-80
2024/01/30 10:18:02;;;;;;;7.50;5.33;;;11.10;70.80;10.10;97853.00;;;;5062422;28;20286;-81
2024/01/30 10:20:31;;;;;;;5.30;4.80;;;11.40;70.60;10.30;97853.00;;;;5064055;28;20212;-81
2024/01/30 10:22:58;;;;;;;5.00;4.50;;;11.70;70.00;10.60;97853.00;;;;5065443;28;20561;-81
2024/01/30 10:25:26;;;;;;;5.47;4.80;;;11.90;69.40;10.80;97854.00;;;;5065232;28;20677;-81
2024/01/30 10:27:57;;;;;;;6.57;5.10;;;12.10;68.40;11.00;97848.00;;;;5063695;28;20184;-80
2024/01/30 10:30:24;;;;;;;5.50;4.63;;;12.40;67.20;11.20;97847.00;;;;5062105;28;20226;-80
2024/01/30 10:32:52;;;;;;;5.50;4.93;;;12.60;67.30;11.40;97851.00;;;;5064557;28;20188;-80
2024/01/30 10:35:19;;;;;;;7.37;4.60;;;12.70;66.90;11.60;97847.00;;;;5046330;28;20199;-80
2024/01/30 10:37:49;;;;;;;6.00;4.93;;;12.90;66.70;11.70;97841.00;;;;5058742;28;20216;-80
2024/01/30 10:40:17;;;;;;;7.03;5.17;;;13.00;65.90;11.90;97843.00;;;;5062191;28;20257;-80
2024/01/30 10:42:46;;;;;;;5.07;4.57;;;13.30;65.90;12.00;97840.00;;;;5063018;28;20264;-81
2024/01/30 10:45:15;;;;;;;8.30;5.90;;;13.30;65.50;12.10;97831.00;;;;5064945;28;20660;-81
2024/01/30 10:47:50;;;;;;;6.93;5.53;;;13.40;65.30;12.20;97838.00;;;;5065854;28;20604;-80
2024/01/30 10:50:18;;;;;;;6.13;4.83;;;13.50;64.40;12.30;97823.00;;;;5066699;28;20234;-80
2024/01/30 10:52:48;;;;;;;6.07;5.47;;;13.60;64.70;12.40;97825.00;;;;5062290;28;20195;-81
2024/01/30 10:55:19;;;;;;;7.53;5.37;;;13.70;64.20;12.50;97823.00;;;;5067894;28;20184;-81
2024/01/30 10:57:46;;;;;;;5.87;5.37;;;13.80;63.70;12.50;97818.00;;;;5070837;28;20251;-79
2024/01/30 11:00:22;;;;;;;6.03;5.27;;;13.80;63.30;12.50;97813.00;;;;5071107;28;20231;-81
2024/01/30 11:02:50;;;;;;;6.87;5.20;;;13.80;62.60;12.50;97810.00;;;;5065480;28;20198;-83
2024/01/30 11:05:29;;;;;;;6.17;5.43;;;13.80;62.60;12.50;97811.00;;;;5069199;28;20212;-81
2024/01/30 11:07:57;;;;;;;7.30;5.37;;;13.80;61.70;12.50;97815.00;;;;5067659;28;20184;-80
2024/01/30 11:10:26;;;;;;;6.97;5.50;;;13.80;61.90;12.40;97806.00;;;;5067903;28;20216;-80